Time,TemperatureF,DewpointF,PressureIn,WindDirection,WindDirectionDegrees,WindSpeedMPH,WindSpeedGustMPH,Humidity,HourlyPrecipIn,Conditions,Clouds,dailyrainin,SoftwareType,DateUTC
2013-03-17 00:00:00,32.2,30.2,29.95,NE,44,1.0,2.0,92,0.00,,,0.08,meteohub,2013-03-17 04:00:00,
2013-03-17 00:05:00,32.2,30.2,29.96,North,355,1.0,3.0,92,0.00,,,0.00,meteohub,2013-03-17 04:05:00,
2013-03-17 00:10:00,32.2,30.2,29.95,NNW,333,0.0,3.0,92,0.00,,,0.00,meteohub,2013-03-17 04:10:00,
2013-03-17 00:15:00,32.2,30.2,29.96,NNW,333,1.0,3.0,92,0.00,,,0.00,meteohub,2013-03-17 04:15:00,
2013-03-17 00:20:00,32.2,30.2,29.96,NNW,333,1.0,2.0,92,0.00,,,0.00,meteohub,2013-03-17 04:20:00,
2013-03-17 00:25:00,32.2,30.2,29.96,NNW,333,1.0,2.0,92,0.00,,,0.00,meteohub,2013-03-17 04:25:00,
2013-03-17 00:30:00,32.2,30.2,29.96,NW,323,1.0,2.0,92,0.00,,,0.00,meteohub,2013-03-17 04:30:00,
2013-03-17 00:35:00,32.2,30.2,29.96,NW,323,0.0,2.0,92,0.00,,,0.00,meteohub,2013-03-17 04:35:00,
2013-03-17 00:40:00,32.2,30.2,29.96,NW,323,1.0,2.0,92,0.00,,,0.00,meteohub,2013-03-17 04:40:00,
2013-03-17 00:45:00,32.2,30.2,29.96,NW,323,1.0,2.0,92,0.00,,,0.00,meteohub,2013-03-17 04:45:00,
2013-03-17 00:50:00,32.2,30.4,29.96,NW,323,0.0,2.0,93,0.00,,,0.00,meteohub,2013-03-17 04:50:00,
2013-03-17 00:55:00,32.4,30.6,29.95,NW,323,0.0,2.0,93,0.00,,,0.00,meteohub,2013-03-17 04:55:00,
2013-03-17 01:00:00,32.4,30.6,29.95,NW,323,0.0,2.0,93,0.00,,,0.00,meteohub,2013-03-17 05:00:00,
2013-03-17 01:05:00,32.4,30.4,29.95,NW,323,0.0,1.0,92,0.00,,,0.00,meteohub,2013-03-17 05:05:00,
2013-03-17 01:11:00,32.4,30.4,29.95,NW,323,0.0,1.0,92,0.00,,,0.00,meteohub,2013-03-17 05:11:00,
2013-03-17 01:15:00,32.2,30.2,29.95,NW,323,0.0,1.0,92,0.00,,,0.00,meteohub,2013-03-17 05:15:00,
2013-03-17 01:21:00,32.2,30.2,29.95,NW,323,0.0,1.0,92,0.00,,,0.00,meteohub,2013-03-17 05:21:00,
2013-03-17 01:26:00,32.2,30.2,29.95,NW,323,0.0,1.0,92,0.00,,,0.00,meteohub,2013-03-17 05:26:00,
2013-03-17 01:31:00,32.2,30.2,29.94,NW,323,0.0,1.0,92,0.00,,,0.00,meteohub,2013-03-17 05:31:00,
2013-03-17 01:36:00,32.2,30.2,29.94,NW,323,0.0,1.0,92,0.00,,,0.00,meteohub,2013-03-17 05:36:00,
2013-03-17 01:41:00,32.2,30.2,29.94,NW,323,0.0,1.0,92,0.00,,,0.00,meteohub,2013-03-17 05:41:00,
2013-03-17 01:46:00,32.2,30.2,29.94,NW,323,1.0,1.0,92,0.00,,,0.00,meteohub,2013-03-17 05:46:00,
2013-03-17 01:51:00,31.8,29.8,29.95,NW,323,1.0,2.0,92,0.00,,,0.00,meteohub,2013-03-17 05:51:00,
2013-03-17 01:56:00,31.8,29.8,29.95,NW,323,1.0,2.0,92,0.00,,,0.00,meteohub,2013-03-17 05:56:00,
2013-03-17 02:01:00,31.6,29.7,29.95,NW,323,2.0,3.0,92,0.00,,,0.00,meteohub,2013-03-17 06:01:00,
2013-03-17 02:06:00,31.5,29.5,29.96,NW,320,2.0,3.0,92,0.00,,,0.00,meteohub,2013-03-17 06:06:00,
2013-03-17 02:11:00,31.3,29.3,29.96,NW,308,2.0,4.0,92,0.00,,,0.00,meteohub,2013-03-17 06:11:00,
2013-03-17 02:16:00,31.3,29.3,29.96,NNW,327,2.0,5.0,92,0.00,,,0.00,meteohub,2013-03-17 06:16:00,
2013-03-17 02:21:00,31.1,29.1,29.96,NW,309,1.0,5.0,92,0.00,,,0.00,meteohub,2013-03-17 06:21:00,
2013-03-17 02:26:00,30.9,28.9,29.97,NW,308,1.0,5.0,92,0.00,,,0.00,meteohub,2013-03-17 06:26:00,
2013-03-17 02:31:00,30.9,29.1,29.98,NW,304,3.0,3.0,93,0.00,,,0.00,meteohub,2013-03-17 06:31:00,
2013-03-17 02:36:00,30.9,29.1,29.98,NW,310,2.0,3.0,93,0.00,,,0.00,meteohub,2013-03-17 06:36:00,
2013-03-17 02:41:00,31.1,29.3,29.98,NW,313,3.0,3.0,93,0.00,,,0.00,meteohub,2013-03-17 06:41:00,
2013-03-17 02:46:00,31.1,29.3,29.98,NW,311,2.0,3.0,93,0.00,,,0.00,meteohub,2013-03-17 06:46:00,
2013-03-17 02:52:00,31.3,29.8,29.98,NW,309,1.0,3.0,94,0.00,,,0.00,meteohub,2013-03-17 06:52:00,
2013-03-17 02:57:00,31.3,29.8,29.99,NW,308,1.0,3.0,94,0.00,,,0.00,meteohub,2013-03-17 06:57:00,
2013-03-17 03:02:00,31.5,30.0,29.99,NW,307,1.0,3.0,94,0.00,,,0.00,meteohub,2013-03-17 07:02:00,
2013-03-17 03:07:00,31.5,29.7,29.99,WNW,300,2.0,2.0,93,0.00,,,0.00,meteohub,2013-03-17 07:07:00,
2013-03-17 03:12:00,31.5,29.7,29.99,WNW,300,2.0,2.0,93,0.00,,,0.00,meteohub,2013-03-17 07:12:00,
2013-03-17 03:17:00,31.5,29.7,29.99,NW,311,1.0,4.0,93,0.00,,,0.00,meteohub,2013-03-17 07:17:00,
2013-03-17 03:22:00,31.5,29.5,29.99,NW,311,2.0,4.0,92,0.00,,,0.00,meteohub,2013-03-17 07:22:00,
2013-03-17 03:27:00,31.5,29.5,30.00,NW,311,1.0,4.0,92,0.00,,,0.00,meteohub,2013-03-17 07:27:00,
2013-03-17 03:32:00,31.5,29.5,30.00,NW,313,2.0,3.0,92,0.00,,,0.00,meteohub,2013-03-17 07:32:00,
2013-03-17 03:37:00,31.5,29.5,30.00,NW,315,2.0,4.0,92,0.00,,,0.00,meteohub,2013-03-17 07:37:00,
2013-03-17 03:42:00,31.5,29.5,30.00,NW,315,1.0,4.0,92,0.00,,,0.00,meteohub,2013-03-17 07:42:00,
2013-03-17 03:47:00,31.5,29.5,30.00,NNW,331,2.0,4.0,92,0.00,,,0.00,meteohub,2013-03-17 07:47:00,
2013-03-17 03:52:00,31.5,29.1,30.00,NNW,334,2.0,3.0,91,0.00,,,0.00,meteohub,2013-03-17 07:52:00,
2013-03-17 03:57:00,31.3,28.8,30.00,NW,324,4.0,4.0,90,0.00,,,0.00,meteohub,2013-03-17 07:57:00,
2013-03-17 04:02:00,31.3,28.8,30.01,NW,317,1.0,5.0,90,0.00,,,0.00,meteohub,2013-03-17 08:02:00,
2013-03-17 04:07:00,31.3,28.4,30.00,NNW,341,2.0,5.0,89,0.00,,,0.00,meteohub,2013-03-17 08:07:00,
2013-03-17 04:12:00,31.1,28.2,30.00,NNW,344,1.0,5.0,89,0.00,,,0.00,meteohub,2013-03-17 08:12:00,
2013-03-17 04:17:00,30.9,27.9,30.00,NNW,342,1.0,6.0,88,0.00,,,0.00,meteohub,2013-03-17 08:17:00,
2013-03-17 04:22:00,30.7,27.7,30.01,NNE,33,3.0,6.0,88,0.00,,,0.00,meteohub,2013-03-17 08:22:00,
2013-03-17 04:27:00,30.7,27.7,30.01,NW,314,2.0,6.0,88,0.00,,,0.00,meteohub,2013-03-17 08:27:00,
2013-03-17 04:32:00,30.6,27.5,30.01,NW,321,3.0,4.0,88,0.00,,,0.00,meteohub,2013-03-17 08:32:00,
2013-03-17 04:37:00,30.6,27.1,30.01,NW,319,2.0,4.0,87,0.00,,,0.00,meteohub,2013-03-17 08:37:00,
2013-03-17 04:42:00,30.4,27.3,30.01,NW,313,2.0,4.0,88,0.00,,,0.00,meteohub,2013-03-17 08:42:00,
2013-03-17 04:47:00,30.4,27.3,30.02,NW,321,2.0,4.0,88,0.00,,,0.00,meteohub,2013-03-17 08:47:00,
2013-03-17 04:52:00,30.2,27.1,30.02,NW,319,2.0,4.0,88,0.00,,,0.00,meteohub,2013-03-17 08:52:00,
2013-03-17 04:57:00,30.0,27.0,30.01,NW,319,2.0,4.0,88,0.00,,,0.00,meteohub,2013-03-17 08:57:00,
2013-03-17 05:02:00,29.8,27.0,30.01,NW,323,2.0,2.0,89,0.00,,,0.00,meteohub,2013-03-17 09:02:00,
2013-03-17 05:07:00,29.8,27.0,30.01,NW,311,1.0,3.0,89,0.00,,,0.00,meteohub,2013-03-17 09:07:00,
2013-03-17 05:12:00,29.7,26.8,30.02,NW,311,0.0,3.0,89,0.00,,,0.00,meteohub,2013-03-17 09:12:00,
2013-03-17 05:17:00,29.8,27.0,30.02,NW,311,0.0,3.0,89,0.00,,,0.00,meteohub,2013-03-17 09:17:00,
2013-03-17 05:22:00,29.8,27.3,30.02,NW,311,0.0,2.0,90,0.00,,,0.00,meteohub,2013-03-17 09:22:00,
2013-03-17 05:27:00,29.8,27.3,30.03,NW,311,1.0,2.0,90,0.00,,,0.00,meteohub,2013-03-17 09:27:00,
2013-03-17 05:32:00,29.8,27.3,30.03,NW,311,1.0,2.0,90,0.00,,,0.00,meteohub,2013-03-17 09:32:00,
2013-03-17 05:37:00,30.0,27.1,30.02,NNW,333,2.0,2.0,89,0.00,,,0.00,meteohub,2013-03-17 09:37:00,
2013-03-17 05:43:00,30.0,27.1,30.02,North,355,0.0,2.0,89,0.00,,,0.00,meteohub,2013-03-17 09:43:00,
2013-03-17 05:48:00,30.0,27.1,30.02,North,355,1.0,2.0,89,0.00,,,0.00,meteohub,2013-03-17 09:48:00,
2013-03-17 05:53:00,30.0,27.1,30.03,North,355,0.0,2.0,89,0.00,,,0.00,meteohub,2013-03-17 09:53:00,
2013-03-17 05:58:00,30.2,27.3,30.03,North,0,0.0,2.0,89,0.00,,,0.00,meteohub,2013-03-17 09:58:00,
2013-03-17 06:03:00,30.2,27.3,30.04,North,0,1.0,2.0,89,0.00,,,0.00,meteohub,2013-03-17 10:03:00,
2013-03-17 06:08:00,30.4,27.3,30.04,NE,38,2.0,2.0,88,0.00,,,0.00,meteohub,2013-03-17 10:08:00,
2013-03-17 06:13:00,30.4,27.0,30.05,NE,50,2.0,3.0,87,0.00,,,0.00,meteohub,2013-03-17 10:13:00,
2013-03-17 06:18:00,30.6,27.1,30.05,NNE,24,2.0,4.0,87,0.00,,,0.00,meteohub,2013-03-17 10:18:00,
2013-03-17 06:23:00,30.6,27.1,30.06,NNE,27,0.0,4.0,87,0.00,,,0.00,meteohub,2013-03-17 10:23:00,
2013-03-17 06:28:00,30.6,27.1,30.06,NNE,22,1.0,4.0,87,0.00,,,0.00,meteohub,2013-03-17 10:28:00,
2013-03-17 06:33:00,30.7,27.1,30.06,NE,34,1.0,2.0,86,0.00,,,0.00,meteohub,2013-03-17 10:33:00,
2013-03-17 06:38:00,30.7,27.3,30.06,NNE,33,1.0,2.0,87,0.00,,,0.00,meteohub,2013-03-17 10:38:00,
2013-03-17 06:43:00,30.7,27.1,30.07,NE,36,0.0,2.0,86,0.00,,,0.00,meteohub,2013-03-17 10:43:00,
2013-03-17 06:48:00,30.7,27.1,30.07,NE,36,0.0,2.0,86,0.00,,,0.00,meteohub,2013-03-17 10:48:00,
2013-03-17 06:53:00,30.7,27.3,30.07,NE,38,0.0,2.0,87,0.00,,,0.00,meteohub,2013-03-17 10:53:00,
2013-03-17 06:58:00,30.7,27.3,30.07,NE,34,0.0,1.0,87,0.00,,,0.00,meteohub,2013-03-17 10:58:00,
2013-03-17 07:03:00,30.7,27.3,30.07,NE,34,0.0,1.0,87,0.00,,,0.00,meteohub,2013-03-17 11:03:00,
2013-03-17 07:08:00,30.7,27.3,30.07,NE,34,0.0,2.0,87,0.00,,,0.00,meteohub,2013-03-17 11:08:00,
2013-03-17 07:13:00,30.7,27.3,30.08,NNE,33,0.0,2.0,87,0.00,,,0.00,meteohub,2013-03-17 11:13:00,
2013-03-17 07:18:00,30.7,27.3,30.09,NE,34,1.0,2.0,87,0.00,,,0.00,meteohub,2013-03-17 11:18:00,
2013-03-17 07:23:00,30.7,27.7,30.09,NNE,32,1.0,1.0,88,0.00,,,0.00,meteohub,2013-03-17 11:23:00,
2013-03-17 07:28:00,30.6,27.5,30.10,NNE,32,0.0,1.0,88,0.00,,,0.00,meteohub,2013-03-17 11:28:00,
2013-03-17 07:33:00,30.6,27.7,30.09,NNE,32,0.0,1.0,89,0.00,,,0.00,meteohub,2013-03-17 11:33:00,
2013-03-17 07:38:00,30.6,27.7,30.09,NNE,32,0.0,1.0,89,0.00,,,0.00,meteohub,2013-03-17 11:38:00,
2013-03-17 07:44:00,30.6,27.5,30.10,NNE,32,0.0,1.0,88,0.00,,,0.00,meteohub,2013-03-17 11:44:00,
2013-03-17 07:49:00,30.6,27.7,30.10,NNE,32,0.0,1.0,89,0.00,,,0.00,meteohub,2013-03-17 11:49:00,
2013-03-17 07:54:00,30.6,27.5,30.11,NNE,32,1.0,1.0,88,0.00,,,0.00,meteohub,2013-03-17 11:54:00,
2013-03-17 07:59:00,30.7,27.7,30.12,NNE,32,0.0,1.0,88,0.00,,,0.00,meteohub,2013-03-17 11:59:00,
2013-03-17 08:04:00,30.7,27.7,30.12,NNE,18,1.0,2.0,88,0.00,,,0.00,meteohub,2013-03-17 12:04:00,
2013-03-17 08:09:00,30.7,27.1,30.13,NNE,18,0.0,3.0,86,0.00,,,0.00,meteohub,2013-03-17 12:09:00,
2013-03-17 08:14:00,30.9,27.5,30.14,NNE,18,0.0,3.0,87,0.00,,,0.00,meteohub,2013-03-17 12:14:00,
2013-03-17 08:19:00,30.9,27.1,30.14,NNE,18,0.0,3.0,86,0.00,,,0.00,meteohub,2013-03-17 12:19:00,
2013-03-17 08:24:00,30.9,27.5,30.14,NNE,18,1.0,1.0,87,0.00,,,0.00,meteohub,2013-03-17 12:24:00,
2013-03-17 08:29:00,30.9,27.1,30.14,NNE,19,1.0,2.0,86,0.00,,,0.00,meteohub,2013-03-17 12:29:00,
2013-03-17 08:34:00,30.9,27.0,30.14,North,0,2.0,2.0,85,0.00,,,0.00,meteohub,2013-03-17 12:34:00,
2013-03-17 08:39:00,30.9,26.6,30.14,NNE,15,2.0,5.0,84,0.00,,,0.00,meteohub,2013-03-17 12:39:00,
2013-03-17 08:44:00,30.9,26.6,30.14,NNE,19,3.0,8.0,84,0.00,,,0.00,meteohub,2013-03-17 12:44:00,
2013-03-17 08:49:00,30.7,26.2,30.15,NNW,330,1.0,8.0,83,0.00,,,0.00,meteohub,2013-03-17 12:49:00,
2013-03-17 08:54:00,30.7,26.2,30.15,NE,34,2.0,8.0,83,0.00,,,0.00,meteohub,2013-03-17 12:54:00,
2013-03-17 08:59:00,30.7,26.4,30.15,NNE,22,2.0,5.0,84,0.00,,,0.00,meteohub,2013-03-17 12:59:00,
2013-03-17 09:04:00,30.7,26.2,30.15,NNE,28,2.0,5.0,83,0.00,,,0.00,meteohub,2013-03-17 13:04:00,
2013-03-17 09:09:00,30.7,26.4,30.16,NNE,30,3.0,5.0,84,0.00,,,0.00,meteohub,2013-03-17 13:09:00,
2013-03-17 09:14:00,30.7,26.2,30.16,NNE,17,4.0,5.0,83,0.00,,,0.00,meteohub,2013-03-17 13:14:00,
2013-03-17 09:19:00,30.7,26.2,30.17,NNW,348,2.0,6.0,83,0.00,,,0.00,meteohub,2013-03-17 13:19:00,
2013-03-17 09:24:00,30.7,25.9,30.16,NNE,19,3.0,7.0,82,0.00,,,0.00,meteohub,2013-03-17 13:24:00,
2013-03-17 09:29:00,30.7,25.5,30.17,NNE,28,1.0,7.0,81,0.00,,,0.00,meteohub,2013-03-17 13:29:00,
2013-03-17 09:34:00,30.6,25.7,30.17,ENE,57,1.0,7.0,82,0.00,,,0.00,meteohub,2013-03-17 13:34:00,
2013-03-17 09:39:00,30.6,25.7,30.17,NE,41,2.0,7.0,82,0.00,,,0.00,meteohub,2013-03-17 13:39:00,
2013-03-17 09:44:00,30.6,25.7,30.17,NNE,28,2.0,6.0,82,0.00,,,0.00,meteohub,2013-03-17 13:44:00,
2013-03-17 09:49:00,30.7,26.2,30.17,ENE,61,1.0,6.0,83,0.00,,,0.00,meteohub,2013-03-17 13:49:00,
2013-03-17 09:54:00,30.7,26.2,30.16,NE,43,3.0,6.0,83,0.00,,,0.00,meteohub,2013-03-17 13:54:00,
2013-03-17 09:59:00,30.7,26.4,30.16,ENE,61,3.0,5.0,84,0.00,,,0.00,meteohub,2013-03-17 13:59:00,
2013-03-17 10:04:00,30.9,26.6,30.15,NE,55,3.0,4.0,84,0.00,,,0.00,meteohub,2013-03-17 14:04:00,
2013-03-17 10:09:00,30.9,26.6,30.15,ENE,67,3.0,5.0,84,0.00,,,0.00,meteohub,2013-03-17 14:09:00,
2013-03-17 10:14:00,31.3,27.0,30.15,NNE,33,3.0,5.0,84,0.00,,,0.00,meteohub,2013-03-17 14:14:00,
2013-03-17 10:19:00,31.5,26.6,30.15,NNE,25,3.0,5.0,82,0.00,,,0.00,meteohub,2013-03-17 14:19:00,
2013-03-17 10:24:00,31.5,26.2,30.15,NE,54,1.0,5.0,81,0.00,,,0.00,meteohub,2013-03-17 14:24:00,
2013-03-17 10:29:00,31.6,26.2,30.15,NNE,17,3.0,5.0,80,0.00,,,0.00,meteohub,2013-03-17 14:29:00,
2013-03-17 10:34:00,31.6,26.2,30.16,NW,323,1.0,5.0,80,0.00,,,0.00,meteohub,2013-03-17 14:34:00,
2013-03-17 10:39:00,31.8,26.1,30.17,NNE,22,2.0,5.0,79,0.00,,,0.00,meteohub,2013-03-17 14:39:00,
2013-03-17 10:44:00,31.8,25.5,30.17,NNE,30,3.0,5.0,77,0.00,,,0.00,meteohub,2013-03-17 14:44:00,
2013-03-17 10:49:00,31.6,25.3,30.17,NNE,24,3.0,10.0,77,0.00,,,0.00,meteohub,2013-03-17 14:49:00,
2013-03-17 10:54:00,31.6,25.3,30.17,NNE,25,3.0,10.0,77,0.00,,,0.00,meteohub,2013-03-17 14:54:00,
2013-03-17 10:59:00,31.6,24.6,30.18,NE,56,3.0,10.0,75,0.00,,,0.00,meteohub,2013-03-17 14:59:00,
2013-03-17 11:04:00,31.6,25.0,30.18,NE,53,0.0,6.0,76,0.00,,,0.00,meteohub,2013-03-17 15:04:00,
2013-03-17 11:09:00,31.6,25.3,30.18,NNW,329,1.0,6.0,77,0.00,,,0.00,meteohub,2013-03-17 15:09:00,
2013-03-17 11:14:00,31.8,25.2,30.18,NW,305,3.0,6.0,76,0.00,,,0.00,meteohub,2013-03-17 15:14:00,
2013-03-17 11:19:00,31.8,25.2,30.18,North,355,1.0,4.0,76,0.00,,,0.00,meteohub,2013-03-17 15:19:00,
2013-03-17 11:24:00,31.8,24.8,30.18,NNE,14,1.0,4.0,75,0.00,,,0.00,meteohub,2013-03-17 15:24:00,
2013-03-17 11:29:00,32.0,25.0,30.19,NNE,25,0.0,4.0,75,0.00,,,0.00,meteohub,2013-03-17 15:29:00,
2013-03-17 11:35:00,32.2,24.8,30.19,NNW,334,2.0,4.0,74,0.00,,,0.00,meteohub,2013-03-17 15:35:00,
2013-03-17 11:40:00,32.4,25.0,30.19,NNW,329,2.0,3.0,74,0.00,,,0.00,meteohub,2013-03-17 15:40:00,
2013-03-17 11:45:00,32.5,24.4,30.19,WNW,296,3.0,3.0,72,0.00,,,0.00,meteohub,2013-03-17 15:45:00,
2013-03-17 11:50:00,32.7,24.6,30.20,NNW,333,2.0,5.0,72,0.00,,,0.00,meteohub,2013-03-17 15:50:00,
2013-03-17 11:55:00,32.7,24.4,30.20,NW,310,2.0,5.0,71,0.00,,,0.00,meteohub,2013-03-17 15:55:00,
2013-03-17 12:00:00,32.9,24.8,30.19,NW,322,3.0,5.0,72,0.00,,,0.00,meteohub,2013-03-17 16:00:00,
2013-03-17 12:05:00,33.1,24.6,30.19,NW,311,3.0,5.0,71,0.00,,,0.00,meteohub,2013-03-17 16:05:00,
2013-03-17 12:10:00,33.1,24.4,30.19,NNW,342,1.0,5.0,70,0.00,,,0.00,meteohub,2013-03-17 16:10:00,
2013-03-17 12:15:00,33.3,24.3,30.20,NNW,337,4.0,5.0,69,0.00,,,0.00,meteohub,2013-03-17 16:15:00,
2013-03-17 12:20:00,33.3,24.6,30.19,NW,321,4.0,5.0,70,0.00,,,0.00,meteohub,2013-03-17 16:20:00,
2013-03-17 12:25:00,33.4,24.1,30.19,North,355,3.0,6.0,68,0.00,,,0.00,meteohub,2013-03-17 16:25:00,
2013-03-17 12:30:00,33.4,24.8,30.19,NNW,345,3.0,6.0,70,0.00,,,0.00,meteohub,2013-03-17 16:30:00,
2013-03-17 12:35:00,34.0,25.2,30.20,NW,319,2.0,6.0,70,0.00,,,0.00,meteohub,2013-03-17 16:35:00,
2013-03-17 12:40:00,34.2,24.6,30.20,NNE,16,4.0,6.0,68,0.00,,,0.00,meteohub,2013-03-17 16:40:00,
2013-03-17 12:45:00,34.2,25.3,30.19,NNW,335,3.0,7.0,70,0.00,,,0.00,meteohub,2013-03-17 16:45:00,
2013-03-17 12:50:00,34.2,23.5,30.20,WNW,300,6.0,7.0,65,0.00,,,0.00,meteohub,2013-03-17 16:50:00,
2013-03-17 12:55:00,34.0,23.9,30.20,NW,309,1.0,7.0,66,0.00,,,0.00,meteohub,2013-03-17 16:55:00,
2013-03-17 13:00:00,34.0,24.6,30.20,NW,311,1.0,7.0,68,0.00,,,0.00,meteohub,2013-03-17 17:00:00,
2013-03-17 13:05:00,34.2,24.4,30.20,NW,310,3.0,6.0,67,0.00,,,0.00,meteohub,2013-03-17 17:05:00,
2013-03-17 13:10:00,34.3,25.2,30.20,WNW,296,2.0,5.0,69,0.00,,,0.00,meteohub,2013-03-17 17:10:00,
2013-03-17 13:15:00,34.5,24.3,30.20,WNW,296,3.0,5.0,66,0.00,,,0.00,meteohub,2013-03-17 17:15:00,
2013-03-17 13:20:00,34.9,25.0,30.20,WNW,282,3.0,6.0,67,0.00,,,0.00,meteohub,2013-03-17 17:20:00,
2013-03-17 13:25:00,35.1,24.8,30.20,NW,306,2.0,6.0,66,0.00,,,0.00,meteohub,2013-03-17 17:25:00,
2013-03-17 13:30:00,35.6,25.0,30.20,WNW,301,3.0,6.0,65,0.00,,,0.00,meteohub,2013-03-17 17:30:00,
2013-03-17 13:35:00,36.1,25.9,30.19,NNW,329,4.0,6.0,66,0.00,,,0.00,meteohub,2013-03-17 17:35:00,
2013-03-17 13:40:00,36.9,25.9,30.19,North,355,4.0,6.0,64,0.00,,,0.00,meteohub,2013-03-17 17:40:00,
2013-03-17 13:45:00,37.0,24.8,30.19,WNW,302,5.0,6.0,61,0.00,,,0.00,meteohub,2013-03-17 17:45:00,
2013-03-17 13:50:00,37.8,25.9,30.19,NNW,336,0.0,6.0,62,0.00,,,0.00,meteohub,2013-03-17 17:50:00,
2013-03-17 13:55:00,38.1,26.2,30.18,NW,317,3.0,7.0,62,0.00,,,0.00,meteohub,2013-03-17 17:55:00,
2013-03-17 14:00:00,37.4,25.2,30.18,NW,321,5.0,7.0,61,0.00,,,0.00,meteohub,2013-03-17 18:00:00,
2013-03-17 14:05:00,37.8,25.5,30.18,WNW,303,3.0,8.0,61,0.00,,,0.00,meteohub,2013-03-17 18:05:00,
2013-03-17 14:10:00,37.8,25.9,30.18,NW,313,2.0,8.0,62,0.00,,,0.00,meteohub,2013-03-17 18:10:00,
2013-03-17 14:15:00,37.9,25.3,30.18,NW,308,5.0,8.0,60,0.00,,,0.00,meteohub,2013-03-17 18:15:00,
2013-03-17 14:20:00,37.8,24.8,30.18,North,355,5.0,8.0,59,0.00,,,0.00,meteohub,2013-03-17 18:20:00,
2013-03-17 14:25:00,38.1,25.0,30.18,NNW,339,2.0,8.0,59,0.00,,,0.00,meteohub,2013-03-17 18:25:00,
2013-03-17 14:30:00,38.7,26.4,30.18,WNW,302,3.0,8.0,61,0.00,,,0.00,meteohub,2013-03-17 18:30:00,
2013-03-17 14:35:00,39.4,26.2,30.18,NW,306,4.0,8.0,59,0.00,,,0.00,meteohub,2013-03-17 18:35:00,
2013-03-17 14:40:00,39.0,25.2,30.18,NW,311,2.0,10.0,57,0.00,,,0.00,meteohub,2013-03-17 18:40:00,
2013-03-17 14:45:00,38.5,24.1,30.17,NW,315,5.0,10.0,56,0.00,,,0.00,meteohub,2013-03-17 18:45:00,
2013-03-17 14:50:00,37.9,25.0,30.18,NNW,337,6.0,10.0,59,0.00,,,0.00,meteohub,2013-03-17 18:50:00,
2013-03-17 14:55:00,37.8,24.8,30.17,NW,304,4.0,8.0,59,0.00,,,0.00,meteohub,2013-03-17 18:55:00,
2013-03-17 15:00:00,37.9,24.4,30.17,WNW,302,5.0,9.0,58,0.00,,,0.00,meteohub,2013-03-17 19:00:00,
2013-03-17 15:05:00,38.1,24.6,30.17,NW,313,3.0,9.0,58,0.00,,,0.00,meteohub,2013-03-17 19:05:00,
2013-03-17 15:10:00,37.9,24.1,30.17,NW,310,3.0,9.0,57,0.00,,,0.00,meteohub,2013-03-17 19:10:00,
2013-03-17 15:15:00,37.9,24.1,30.17,NW,324,3.0,9.0,57,0.00,,,0.00,meteohub,2013-03-17 19:15:00,
2013-03-17 15:20:00,38.3,23.5,30.18,NNW,331,3.0,9.0,55,0.00,,,0.00,meteohub,2013-03-17 19:20:00,
2013-03-17 15:25:00,38.7,23.9,30.18,North,0,5.0,7.0,55,0.00,,,0.00,meteohub,2013-03-17 19:25:00,
2013-03-17 15:30:00,39.2,23.0,30.18,NW,311,3.0,7.0,52,0.00,,,0.00,meteohub,2013-03-17 19:30:00,
2013-03-17 15:35:00,40.3,24.1,30.18,North,350,4.0,8.0,52,0.00,,,0.00,meteohub,2013-03-17 19:35:00,
2013-03-17 15:40:00,39.7,23.2,30.18,NNE,13,4.0,9.0,51,0.00,,,0.00,meteohub,2013-03-17 19:40:00,
2013-03-17 15:45:00,39.6,23.4,30.18,WNW,285,3.0,9.0,52,0.00,,,0.00,meteohub,2013-03-17 19:45:00,
2013-03-17 15:50:00,39.4,23.7,30.19,NW,307,1.0,9.0,53,0.00,,,0.00,meteohub,2013-03-17 19:50:00,
2013-03-17 15:55:00,39.4,23.2,30.19,NW,318,4.0,7.0,52,0.00,,,0.00,meteohub,2013-03-17 19:55:00,
2013-03-17 16:00:00,39.0,22.5,30.19,NW,326,5.0,9.0,51,0.00,,,0.00,meteohub,2013-03-17 20:00:00,
2013-03-17 16:05:00,38.7,22.6,30.19,NW,311,5.0,9.0,52,0.00,,,0.00,meteohub,2013-03-17 20:05:00,
2013-03-17 16:10:00,38.7,23.4,30.19,WNW,302,5.0,9.0,54,0.00,,,0.00,meteohub,2013-03-17 20:10:00,
2013-03-17 16:15:00,38.3,22.6,30.19,NW,304,3.0,9.0,53,0.00,,,0.00,meteohub,2013-03-17 20:15:00,
2013-03-17 16:20:00,38.1,23.0,30.19,NW,313,6.0,9.0,54,0.00,,,0.00,meteohub,2013-03-17 20:20:00,
2013-03-17 16:25:00,37.9,22.8,30.19,NW,313,3.0,9.0,54,0.00,,,0.00,meteohub,2013-03-17 20:25:00,
2013-03-17 16:30:00,37.9,22.8,30.20,NW,316,2.0,7.0,54,0.00,,,0.00,meteohub,2013-03-17 20:30:00,
2013-03-17 16:35:00,37.8,22.1,30.19,NW,323,3.0,7.0,53,0.00,,,0.00,meteohub,2013-03-17 20:35:00,
2013-03-17 16:40:00,37.8,21.7,30.19,NNW,334,4.0,8.0,52,0.00,,,0.00,meteohub,2013-03-17 20:40:00,
2013-03-17 16:45:00,37.4,21.9,30.19,NW,317,3.0,8.0,53,0.00,,,0.00,meteohub,2013-03-17 20:45:00,
2013-03-17 16:50:00,37.2,21.2,30.19,NNE,29,3.0,8.0,52,0.00,,,0.00,meteohub,2013-03-17 20:50:00,
2013-03-17 16:55:00,37.2,21.2,30.20,NW,315,2.0,7.0,52,0.00,,,0.00,meteohub,2013-03-17 20:55:00,
2013-03-17 17:01:00,37.0,20.7,30.20,NNW,329,6.0,7.0,51,0.00,,,0.00,meteohub,2013-03-17 21:01:00,
2013-03-17 17:06:00,36.9,20.5,30.20,NNW,334,4.0,7.0,51,0.00,,,0.00,meteohub,2013-03-17 21:06:00,
2013-03-17 17:11:00,36.9,21.4,30.20,NW,310,3.0,7.0,53,0.00,,,0.00,meteohub,2013-03-17 21:11:00,
2013-03-17 17:16:00,36.9,21.4,30.20,WNW,297,4.0,7.0,53,0.00,,,0.00,meteohub,2013-03-17 21:16:00,
2013-03-17 17:21:00,36.9,20.8,30.20,NNE,25,3.0,8.0,52,0.00,,,0.00,meteohub,2013-03-17 21:21:00,
2013-03-17 17:26:00,36.7,21.2,30.20,WNW,302,4.0,8.0,53,0.00,,,0.00,meteohub,2013-03-17 21:26:00,
2013-03-17 17:31:00,36.7,21.6,30.21,WNW,297,1.0,8.0,54,0.00,,,0.00,meteohub,2013-03-17 21:31:00,
2013-03-17 17:36:00,36.7,21.2,30.20,NNW,339,3.0,6.0,53,0.00,,,0.00,meteohub,2013-03-17 21:36:00,
2013-03-17 17:41:00,36.7,20.7,30.21,NE,37,3.0,6.0,52,0.00,,,0.00,meteohub,2013-03-17 21:41:00,
2013-03-17 17:46:00,36.5,20.1,30.21,North,0,2.0,7.0,51,0.00,,,0.00,meteohub,2013-03-17 21:46:00,
2013-03-17 17:51:00,36.5,20.1,30.22,NE,34,2.0,7.0,51,0.00,,,0.00,meteohub,2013-03-17 21:51:00,
2013-03-17 17:56:00,36.3,20.3,30.22,NW,306,4.0,7.0,52,0.00,,,0.00,meteohub,2013-03-17 21:56:00,
2013-03-17 18:01:00,36.3,19.4,30.22,NNW,346,3.0,7.0,50,0.00,,,0.00,meteohub,2013-03-17 22:01:00,
2013-03-17 18:06:00,36.1,20.3,30.22,NW,319,3.0,5.0,52,0.00,,,0.00,meteohub,2013-03-17 22:06:00,
2013-03-17 18:11:00,36.0,20.5,30.22,NW,325,3.0,5.0,53,0.00,,,0.00,meteohub,2013-03-17 22:11:00,
2013-03-17 18:16:00,36.0,20.1,30.23,NW,316,2.0,10.0,52,0.00,,,0.00,meteohub,2013-03-17 22:16:00,
2013-03-17 18:22:00,35.8,19.9,30.22,NNW,336,3.0,10.0,52,0.00,,,0.00,meteohub,2013-03-17 22:22:00,
2013-03-17 18:27:00,35.6,19.8,30.22,North,355,2.0,10.0,52,0.00,,,0.00,meteohub,2013-03-17 22:27:00,
2013-03-17 18:32:00,35.6,20.7,30.23,NNW,338,2.0,6.0,54,0.00,,,0.00,meteohub,2013-03-17 22:32:00,
2013-03-17 18:37:00,35.4,20.5,30.23,NW,306,2.0,6.0,54,0.00,,,0.00,meteohub,2013-03-17 22:37:00,
2013-03-17 18:42:00,35.4,20.5,30.23,NW,311,3.0,4.0,54,0.00,,,0.00,meteohub,2013-03-17 22:42:00,
2013-03-17 18:47:00,35.2,20.3,30.23,NNW,331,2.0,5.0,54,0.00,,,0.00,meteohub,2013-03-17 22:47:00,
2013-03-17 18:52:00,35.2,20.3,30.23,NNW,327,4.0,5.0,54,0.00,,,0.00,meteohub,2013-03-17 22:52:00,
2013-03-17 18:57:00,35.1,20.1,30.24,NNW,333,2.0,5.0,54,0.00,,,0.00,meteohub,2013-03-17 22:57:00,
2013-03-17 19:02:00,34.9,19.9,30.24,NW,321,1.0,5.0,54,0.00,,,0.00,meteohub,2013-03-17 23:02:00,
2013-03-17 19:07:00,34.9,19.9,30.25,NNW,341,2.0,5.0,54,0.00,,,0.00,meteohub,2013-03-17 23:07:00,
2013-03-17 19:12:00,34.9,19.4,30.25,NW,310,2.0,3.0,53,0.00,,,0.00,meteohub,2013-03-17 23:12:00,
2013-03-17 19:17:00,34.7,19.8,30.25,NNW,327,2.0,3.0,54,0.00,,,0.00,meteohub,2013-03-17 23:17:00,
2013-03-17 19:22:00,34.5,19.6,30.25,NNE,28,1.0,3.0,54,0.00,,,0.00,meteohub,2013-03-17 23:22:00,
2013-03-17 19:27:00,34.5,19.6,30.25,NNE,28,1.0,3.0,54,0.00,,,0.00,meteohub,2013-03-17 23:27:00,
2013-03-17 19:32:00,34.5,19.9,30.25,NNE,28,0.0,3.0,55,0.00,,,0.00,meteohub,2013-03-17 23:32:00,
2013-03-17 19:37:00,34.3,19.8,30.26,NNE,28,1.0,3.0,55,0.00,,,0.00,meteohub,2013-03-17 23:37:00,
2013-03-17 19:42:00,34.3,20.3,30.26,NNE,28,0.0,2.0,56,0.00,,,0.00,meteohub,2013-03-17 23:42:00,
2013-03-17 19:47:00,34.2,20.5,30.25,NNE,28,0.0,2.0,57,0.00,,,0.00,meteohub,2013-03-17 23:47:00,
2013-03-17 19:52:00,34.0,20.8,30.26,NNE,28,0.0,2.0,58,0.00,,,0.00,meteohub,2013-03-17 23:52:00,
2013-03-17 19:57:00,34.0,21.2,30.26,NNE,28,0.0,2.0,59,0.00,,,0.00,meteohub,2013-03-17 23:57:00,
2013-03-17 20:02:00,33.6,21.6,30.26,NNE,27,0.0,1.0,61,0.00,,,0.00,meteohub,2013-03-18 00:02:00,
2013-03-17 20:07:00,33.6,20.8,30.26,NNE,27,0.0,1.0,59,0.00,,,0.00,meteohub,2013-03-18 00:07:00,
2013-03-17 20:13:00,33.4,20.3,30.26,NNE,27,0.0,1.0,58,0.00,,,0.00,meteohub,2013-03-18 00:13:00,
2013-03-17 20:18:00,33.3,20.5,30.27,NNE,28,0.0,1.0,59,0.00,,,0.00,meteohub,2013-03-18 00:18:00,
2013-03-17 20:23:00,33.1,21.0,30.27,NNE,28,0.0,1.0,61,0.00,,,0.00,meteohub,2013-03-18 00:23:00,
2013-03-17 20:28:00,32.9,21.7,30.27,NNE,28,0.0,0.0,63,0.00,,,0.00,meteohub,2013-03-18 00:28:00,
2013-03-17 20:33:00,32.7,21.6,30.27,NNE,28,0.0,1.0,63,0.00,,,0.00,meteohub,2013-03-18 00:33:00,
2013-03-17 20:38:00,32.4,21.9,30.27,NNE,28,0.0,1.0,65,0.00,,,0.00,meteohub,2013-03-18 00:38:00,
2013-03-17 20:43:00,32.2,21.4,30.28,NNE,28,0.0,1.0,64,0.00,,,0.00,meteohub,2013-03-18 00:43:00,
2013-03-17 20:48:00,31.8,21.7,30.28,NNE,27,0.0,1.0,66,0.00,,,0.00,meteohub,2013-03-18 00:48:00,
2013-03-17 20:53:00,31.6,21.6,30.28,NNE,27,0.0,1.0,66,0.00,,,0.00,meteohub,2013-03-18 00:53:00,
2013-03-17 20:58:00,31.5,20.7,30.28,NNE,27,0.0,1.0,64,0.00,,,0.00,meteohub,2013-03-18 00:58:00,
2013-03-17 21:03:00,31.3,22.3,30.29,NNE,27,0.0,1.0,69,0.00,,,0.00,meteohub,2013-03-18 01:03:00,
2013-03-17 21:08:00,30.9,21.6,30.29,NNE,26,0.0,1.0,68,0.00,,,0.00,meteohub,2013-03-18 01:08:00,
2013-03-17 21:13:00,30.7,21.0,30.29,NNE,26,0.0,1.0,67,0.00,,,0.00,meteohub,2013-03-18 01:13:00,
2013-03-17 21:18:00,30.6,20.8,30.29,NNE,26,0.0,1.0,67,0.00,,,0.00,meteohub,2013-03-18 01:18:00,
2013-03-17 21:23:00,30.6,21.2,30.29,NNE,26,1.0,1.0,68,0.00,,,0.00,meteohub,2013-03-18 01:23:00,
2013-03-17 21:28:00,30.4,22.1,30.30,NNE,26,0.0,2.0,71,0.00,,,0.00,meteohub,2013-03-18 01:28:00,
2013-03-17 21:33:00,30.2,21.9,30.30,NNE,26,0.0,2.0,71,0.00,,,0.00,meteohub,2013-03-18 01:33:00,
2013-03-17 21:38:00,30.0,22.5,30.30,NNE,26,0.0,2.0,73,0.00,,,0.00,meteohub,2013-03-18 01:38:00,
2013-03-17 21:43:00,29.8,22.6,30.30,NNE,26,0.0,1.0,74,0.00,,,0.00,meteohub,2013-03-18 01:43:00,
2013-03-17 21:48:00,29.8,22.8,30.30,NNE,26,1.0,1.0,75,0.00,,,0.00,meteohub,2013-03-18 01:48:00,
2013-03-17 21:53:00,29.7,23.0,30.30,NNE,26,0.0,1.0,76,0.00,,,0.00,meteohub,2013-03-18 01:53:00,
2013-03-17 21:58:00,29.7,23.0,30.30,NNE,26,1.0,1.0,76,0.00,,,0.00,meteohub,2013-03-18 01:58:00,
2013-03-17 22:03:00,29.5,22.5,30.30,NNE,26,1.0,2.0,75,0.00,,,0.00,meteohub,2013-03-18 02:03:00,
2013-03-17 22:08:00,29.5,23.5,30.30,NNE,26,0.0,2.0,78,0.00,,,0.00,meteohub,2013-03-18 02:08:00,
2013-03-17 22:13:00,29.3,23.0,30.30,NNE,26,0.0,2.0,77,0.00,,,0.00,meteohub,2013-03-18 02:13:00,
2013-03-17 22:18:00,29.1,22.8,30.30,NNE,26,0.0,1.0,77,0.00,,,0.00,meteohub,2013-03-18 02:18:00,
2013-03-17 22:23:00,28.9,21.7,30.30,NNE,26,0.0,1.0,74,0.00,,,0.00,meteohub,2013-03-18 02:23:00,
2013-03-17 22:28:00,28.9,23.0,30.31,NNE,26,0.0,1.0,78,0.00,,,0.00,meteohub,2013-03-18 02:28:00,
2013-03-17 22:33:00,28.9,22.6,30.30,NNE,26,1.0,1.0,77,0.00,,,0.00,meteohub,2013-03-18 02:33:00,
2013-03-17 22:38:00,28.9,22.6,30.30,NNE,26,1.0,1.0,77,0.00,,,0.00,meteohub,2013-03-18 02:38:00,
2013-03-17 22:43:00,28.9,23.0,30.31,NNE,26,1.0,1.0,78,0.00,,,0.00,meteohub,2013-03-18 02:43:00,
2013-03-17 22:48:00,28.9,23.2,30.31,NNE,26,0.0,1.0,79,0.00,,,0.00,meteohub,2013-03-18 02:48:00,
2013-03-17 22:53:00,28.8,23.7,30.30,NNE,26,0.0,1.0,81,0.00,,,0.00,meteohub,2013-03-18 02:53:00,
2013-03-17 22:58:00,28.8,23.7,30.30,NNE,26,0.0,1.0,81,0.00,,,0.00,meteohub,2013-03-18 02:58:00,
2013-03-17 23:03:00,28.8,23.4,30.31,NNE,26,0.0,1.0,80,0.00,,,0.00,meteohub,2013-03-18 03:03:00,
2013-03-17 23:08:00,28.6,23.2,30.31,NNE,26,0.0,1.0,80,0.00,,,0.00,meteohub,2013-03-18 03:08:00,
2013-03-17 23:13:00,28.6,23.5,30.31,NNE,27,0.0,1.0,81,0.00,,,0.00,meteohub,2013-03-18 03:13:00,
2013-03-17 23:18:00,28.4,23.5,30.31,NNE,32,0.0,1.0,82,0.00,,,0.00,meteohub,2013-03-18 03:18:00,
2013-03-17 23:23:00,28.2,22.8,30.31,NE,34,0.0,1.0,80,0.00,,,0.00,meteohub,2013-03-18 03:23:00,
2013-03-17 23:28:00,28.2,23.2,30.31,NNE,24,0.0,1.0,81,0.00,,,0.00,meteohub,2013-03-18 03:28:00,
2013-03-17 23:33:00,28.0,23.2,30.32,NNE,24,0.0,1.0,82,0.00,,,0.00,meteohub,2013-03-18 03:33:00,
2013-03-17 23:38:00,28.0,22.1,30.31,NNE,23,0.0,1.0,78,0.00,,,0.00,meteohub,2013-03-18 03:38:00,
2013-03-17 23:43:00,28.0,23.5,30.31,NNE,23,1.0,1.0,83,0.00,,,0.00,meteohub,2013-03-18 03:43:00,
2013-03-17 23:48:00,28.0,23.0,30.31,NNE,23,1.0,1.0,81,0.00,,,0.00,meteohub,2013-03-18 03:48:00,
2013-03-17 23:53:00,28.0,23.0,30.31,NNE,23,1.0,2.0,81,0.00,,,0.00,meteohub,2013-03-18 03:53:00,
2013-03-17 23:58:00,28.0,22.5,30.31,NNE,31,0.0,2.0,79,0.00,,,0.00,meteohub,2013-03-18 03:58:00,